Terminal Aerodrome Forecast
Issued by NWS

Home | Current Version | Previous Version | Graphics & Text | Print | Product List | Glossary On
Versions: 1 2 3 4 5 6 7 8 9 10 11 12 13 14 15 16 17 18
000
FTUS43 KABR 081006 AAA
TAFPIR
TAF AMD
KPIR 081006Z 0810/0906 33016KT P6SM SCT015 BKN110
     FM081700 31018G26KT P6SM BKN120
     FM082200 31013G21KT P6SM BKN200=

USA.gov is the U.S. government's official web portal to all federal, state and local government web resources and services.